Time;durP1;ratioP1;P1;durP2;ratioP2;P2;SDS_P1;SDS_P2;PMS_P1;PMS_P2;Temp;Humidity;BMP_temperature;BMP_pressure;BME280_temperature;BME280_humidity;BME280_pressure;Samples;Min_cycle;Max_cycle;Signal;HPM_P1;HPM_P2
2020/12/22 00:00:50;;;;;;;0.00;0.00;;;15.80;88.50;;;;;;4231574;28;20413;-39
2020/12/22 00:03:11;;;;;;;0.17;0.17;;;15.80;88.30;;;;;;4232186;28;20047;-40
2020/12/22 00:05:32;;;;;;;0.00;0.00;;;15.80;88.10;;;;;;4231739;28;20055;-40
2020/12/22 00:07:52;;;;;;;0.20;0.20;;;15.80;88.00;;;;;;4231667;28;20062;-40
2020/12/22 00:10:14;;;;;;;0.00;0.00;;;15.80;88.00;;;;;;4231266;28;20070;-40
2020/12/22 00:12:38;;;;;;;0.00;0.00;;;15.80;88.20;;;;;;4232043;28;20055;-39
2020/12/22 00:14:59;;;;;;;0.00;0.00;;;15.80;88.20;;;;;;4231882;27;20059;-40
2020/12/22 00:17:20;;;;;;;0.00;0.00;;;15.70;88.30;;;;;;4232189;28;20059;-40
2020/12/22 00:19:41;;;;;;;1.08;1.08;;;15.70;88.40;;;;;;4232010;28;20108;-40
2020/12/22 00:22:01;;;;;;;0.00;0.00;;;15.70;88.60;;;;;;4231817;28;20126;-40
2020/12/22 00:24:23;;;;;;;0.55;0.30;;;15.70;88.70;;;;;;4232001;28;20297;-40
2020/12/22 00:26:50;;;;;;;0.00;0.00;;;15.60;88.70;;;;;;4232042;28;20626;-40
2020/12/22 00:29:10;;;;;;;0.00;0.00;;;15.60;88.90;;;;;;4231907;28;20087;-40
2020/12/22 00:31:35;;;;;;;0.00;0.00;;;15.60;89.00;;;;;;4231491;28;20082;-40
2020/12/22 00:33:56;;;;;;;0.00;0.00;;;15.60;89.20;;;;;;4230997;28;20059;-40
2020/12/22 00:36:17;;;;;;;0.20;0.20;;;15.50;89.20;;;;;;4231392;28;20051;-40
2020/12/22 00:38:37;;;;;;;0.00;0.00;;;15.50;89.30;;;;;;4231248;28;20047;-40
2020/12/22 00:40:59;;;;;;;0.00;0.00;;;15.50;89.50;;;;;;4230840;28;20630;-40
2020/12/22 00:43:21;;;;;;;0.20;0.20;;;15.60;89.60;;;;;;4231110;28;20048;-40
2020/12/22 00:45:42;;;;;;;0.00;0.00;;;15.70;88.80;;;;;;4231240;28;20047;-40
2020/12/22 00:48:17;;;;;;;0.05;0.05;;;15.80;88.10;;;;;;4229994;28;20058;-40
2020/12/22 00:50:38;;;;;;;0.00;0.00;;;16.00;87.50;;;;;;4230784;28;20909;-40
2020/12/22 00:52:59;;;;;;;0.00;0.00;;;16.00;87.20;;;;;;4229578;28;20125;-40
2020/12/22 00:55:20;;;;;;;0.00;0.00;;;16.00;87.10;;;;;;4230991;28;20132;-40
2020/12/22 00:57:46;;;;;;;0.00;0.00;;;16.00;87.00;;;;;;4230957;28;20051;-40
2020/12/22 01:00:13;;;;;;;0.00;0.00;;;16.00;87.10;;;;;;4217002;28;20104;-40
2020/12/22 01:02:34;;;;;;;0.00;0.00;;;16.00;87.20;;;;;;4230820;28;20126;-40
2020/12/22 01:04:55;;;;;;;0.00;0.00;;;16.00;87.40;;;;;;4231244;28;20047;-40
2020/12/22 01:07:19;;;;;;;0.00;0.00;;;16.00;87.20;;;;;;4231394;27;20108;-40
2020/12/22 01:09:39;;;;;;;0.00;0.00;;;16.20;86.70;;;;;;4230538;28;20447;-40
2020/12/22 01:12:00;;;;;;;0.15;0.15;;;16.30;86.20;;;;;;4213738;28;20052;-40
2020/12/22 01:14:21;;;;;;;0.00;0.00;;;16.30;85.90;;;;;;4213999;28;20141;-40
2020/12/22 01:16:44;;;;;;;0.00;0.00;;;16.30;85.80;;;;;;4213785;28;20079;-40
2020/12/22 01:19:05;;;;;;;0.00;0.00;;;16.30;85.80;;;;;;4213752;28;20052;-40
2020/12/22 01:21:26;;;;;;;0.00;0.00;;;16.40;85.70;;;;;;4213924;28;20075;-40
2020/12/22 01:23:47;;;;;;;0.00;0.00;;;16.40;85.60;;;;;;4229778;28;20056;-40
2020/12/22 01:26:07;;;;;;;0.00;0.00;;;16.30;85.60;;;;;;4231063;28;20055;-40
2020/12/22 01:28:30;;;;;;;0.00;0.00;;;16.30;85.80;;;;;;4231012;28;20429;-40
2020/12/22 01:30:51;;;;;;;0.00;0.00;;;16.30;85.90;;;;;;4230489;28;20413;-40
2020/12/22 01:33:13;;;;;;;0.10;0.10;;;16.30;86.20;;;;;;4230820;28;20054;-40
2020/12/22 01:35:34;;;;;;;0.00;0.00;;;16.20;86.30;;;;;;4230928;28;20112;-40
2020/12/22 01:37:55;;;;;;;;;;;16.20;86.60;;;;;;4230950;28;20364;-40
2020/12/22 01:40:16;;;;;;;0.00;0.00;;;16.10;86.90;;;;;;4229899;28;19951;-40
2020/12/22 01:42:42;;;;;;;0.00;0.00;;;16.00;87.20;;;;;;4230092;28;20501;-39
2020/12/22 01:45:03;;;;;;;0.00;0.00;;;16.00;87.40;;;;;;4229854;28;20498;-40
2020/12/22 01:47:25;;;;;;;0.00;0.00;;;15.90;87.60;;;;;;4230191;28;20094;-40
2020/12/22 01:49:47;;;;;;;0.00;0.00;;;15.90;87.90;;;;;;4230350;28;20535;-40
2020/12/22 01:52:09;;;;;;;0.00;0.00;;;16.10;87.50;;;;;;4229373;28;20527;-40
2020/12/22 01:54:31;;;;;;;0.00;0.00;;;16.30;86.50;;;;;;4230316;28;20100;-40
2020/12/22 01:56:54;;;;;;;0.00;0.00;;;16.40;85.60;;;;;;4230422;28;20047;-40
2020/12/22 01:59:17;;;;;;;0.00;0.00;;;16.50;85.30;;;;;;4230301;28;20051;-40
2020/12/22 02:01:38;;;;;;;0.93;0.88;;;16.60;85.10;;;;;;4212835;28;20143;-40
2020/12/22 02:03:59;;;;;;;0.00;0.00;;;16.60;85.10;;;;;;4213019;28;20142;-40
2020/12/22 02:06:21;;;;;;;0.08;0.08;;;16.60;85.00;;;;;;4213114;28;20131;-39
2020/12/22 02:08:43;;;;;;;0.00;0.00;;;16.60;84.90;;;;;;4216576;28;20509;-40
2020/12/22 02:11:03;;;;;;;0.00;0.00;;;16.60;85.10;;;;;;4230058;27;20166;-39
2020/12/22 02:13:24;;;;;;;0.52;0.38;;;16.50;85.20;;;;;;4229718;28;20055;-40
2020/12/22 02:15:45;;;;;;;0.00;0.00;;;16.50;85.40;;;;;;4229626;27;20056;-39
2020/12/22 02:18:06;;;;;;;0.00;0.00;;;16.40;85.60;;;;;;4230049;28;20051;-40
2020/12/22 02:20:27;;;;;;;0.00;0.00;;;16.40;85.80;;;;;;4229704;28;20158;-40
2020/12/22 02:22:49;;;;;;;0.05;0.05;;;16.30;86.10;;;;;;4229381;28;20047;-40
2020/12/22 02:25:14;;;;;;;0.00;0.00;;;16.30;86.40;;;;;;4229846;28;20083;-40
2020/12/22 02:27:36;;;;;;;0.00;0.00;;;16.20;86.70;;;;;;4229491;28;20559;-40
2020/12/22 02:29:57;;;;;;;0.00;0.00;;;16.20;86.90;;;;;;4228916;28;20055;-40
2020/12/22 02:32:18;;;;;;;0.00;0.00;;;16.20;87.90;;;;;;4229840;28;20056;-41
2020/12/22 02:34:39;;;;;;;0.00;0.00;;;16.20;87.10;;;;;;4229122;28;20409;-40
2020/12/22 02:37:00;;;;;;;0.00;0.00;;;16.30;86.90;;;;;;4229406;28;20391;-40
2020/12/22 02:39:22;;;;;;;0.00;0.00;;;16.50;86.10;;;;;;4229117;28;20097;-40
2020/12/22 02:41:43;;;;;;;0.00;0.00;;;16.70;84.90;;;;;;4229461;28;20506;-40
2020/12/22 02:44:04;;;;;;;0.00;0.00;;;16.90;83.90;;;;;;4229233;28;20478;-41
2020/12/22 02:46:26;;;;;;;;;;;17.00;83.50;;;;;;4212932;28;20050;-40
2020/12/22 02:48:46;;;;;;;0.00;0.00;;;17.00;83.30;;;;;;4220588;28;19923;-41
2020/12/22 02:51:08;;;;;;;;;;;17.00;83.20;;;;;;4229432;28;20134;-40
2020/12/22 02:53:29;;;;;;;0.00;0.00;;;17.00;83.30;;;;;;4229148;28;20037;-42
2020/12/22 02:55:50;;;;;;;0.00;0.00;;;17.00;83.50;;;;;;4228947;28;20128;-40
2020/12/22 02:58:11;;;;;;;0.00;0.00;;;16.90;83.60;;;;;;4228625;28;20060;-40
2020/12/22 03:00:33;;;;;;;0.00;0.00;;;16.90;83.80;;;;;;4228448;28;20056;-40
2020/12/22 03:02:54;;;;;;;0.00;0.00;;;16.80;84.10;;;;;;4229606;28;20143;-40
2020/12/22 03:05:14;;;;;;;0.00;0.00;;;16.70;84.40;;;;;;4229698;28;20052;-40
2020/12/22 03:07:36;;;;;;;0.00;0.00;;;16.70;84.80;;;;;;4213396;28;20059;-41
2020/12/22 03:09:57;;;;;;;0.00;0.00;;;16.60;85.10;;;;;;4229044;28;20097;-40
2020/12/22 03:12:18;;;;;;;0.00;0.00;;;16.50;85.40;;;;;;4228987;28;20059;-40
2020/12/22 03:14:39;;;;;;;0.00;0.00;;;16.50;85.80;;;;;;4229307;28;20143;-39
2020/12/22 03:17:00;;;;;;;0.30;0.30;;;16.40;86.20;;;;;;4229516;28;20657;-40
2020/12/22 03:19:21;;;;;;;0.00;0.00;;;16.40;86.50;;;;;;4212235;28;20055;-39
2020/12/22 03:21:42;;;;;;;0.00;0.00;;;16.30;86.80;;;;;;4212240;28;20505;-41
2020/12/22 03:24:03;;;;;;;0.00;0.00;;;16.20;88.00;;;;;;4212089;28;20143;-40
2020/12/22 03:26:24;;;;;;;0.10;0.10;;;16.20;87.60;;;;;;4212112;28;20071;-41
2020/12/22 03:28:45;;;;;;;0.20;0.20;;;16.30;87.20;;;;;;4223554;28;20050;-40
2020/12/22 03:31:06;;;;;;;0.03;0.03;;;16.50;86.10;;;;;;4228848;28;20139;-40
2020/12/22 03:33:28;;;;;;;0.00;0.00;;;16.70;85.40;;;;;;4229110;28;20093;-40
2020/12/22 03:35:49;;;;;;;0.00;0.00;;;16.80;85.00;;;;;;4229013;28;20048;-40
2020/12/22 03:38:10;;;;;;;0.00;0.00;;;16.80;84.90;;;;;;4228537;28;20051;-40
2020/12/22 03:40:31;;;;;;;0.00;0.00;;;16.90;84.60;;;;;;4228838;28;20501;-40
2020/12/22 03:42:51;;;;;;;0.00;0.00;;;16.90;84.40;;;;;;4228805;28;20048;-40
2020/12/22 03:45:16;;;;;;;0.00;0.00;;;16.90;84.30;;;;;;4228541;28;20061;-41
2020/12/22 03:47:37;;;;;;;0.00;0.00;;;16.90;84.40;;;;;;4228618;28;20810;-40
2020/12/22 03:50:13;;;;;;;0.00;0.00;;;16.90;84.50;;;;;;4228854;28;20126;-42
2020/12/22 03:52:36;;;;;;;;;;;16.90;84.80;;;;;;4229007;28;20105;-40
2020/12/22 03:54:56;;;;;;;0.00;0.00;;;17.00;84.40;;;;;;4228745;28;19923;-40
2020/12/22 03:57:17;;;;;;;0.00;0.00;;;17.00;84.20;;;;;;4228657;28;20081;-40
2020/12/22 03:59:38;;;;;;;0.00;0.00;;;17.00;84.20;;;;;;4228787;28;20472;-40
2020/12/22 04:02:00;;;;;;;0.00;0.00;;;16.90;84.40;;;;;;4228788;28;20059;-40
2020/12/22 04:04:21;;;;;;;0.00;0.00;;;16.90;84.60;;;;;;4228366;28;20057;-40
2020/12/22 04:06:42;;;;;;;0.00;0.00;;;16.80;84.90;;;;;;4228682;28;20055;-40
2020/12/22 04:09:03;;;;;;;0.00;0.00;;;16.70;85.20;;;;;;4229008;28;20048;-40
2020/12/22 04:11:24;;;;;;;0.00;0.00;;;16.70;85.60;;;;;;4231702;28;20051;-40
2020/12/22 04:13:45;;;;;;;0.00;0.00;;;16.60;85.90;;;;;;4231993;28;20051;-40
2020/12/22 04:16:05;;;;;;;0.00;0.00;;;16.60;86.50;;;;;;4231963;28;20417;-40
2020/12/22 04:18:27;;;;;;;0.00;0.00;;;16.60;86.30;;;;;;4231165;28;20309;-40
2020/12/22 04:20:48;;;;;;;1.35;1.17;;;16.80;86.50;;;;;;4223929;28;20048;-40
2020/12/22 04:23:09;;;;;;;0.00;0.00;;;16.90;85.20;;;;;;4231453;28;20101;-40
2020/12/22 04:25:30;;;;;;;0.00;0.00;;;16.90;85.00;;;;;;4214545;28;20094;-40
2020/12/22 04:27:51;;;;;;;0.00;0.00;;;16.90;85.10;;;;;;4215097;28;20056;-41
2020/12/22 04:30:13;;;;;;;0.00;0.00;;;16.80;85.20;;;;;;4227816;28;20051;-40
2020/12/22 04:32:34;;;;;;;0.00;0.00;;;16.80;85.50;;;;;;4231129;28;20109;-39
2020/12/22 04:34:56;;;;;;;0.00;0.00;;;16.80;85.80;;;;;;4231075;28;20383;-40
2020/12/22 04:37:17;;;;;;;0.00;0.00;;;16.80;85.70;;;;;;4231746;28;20052;-40
2020/12/22 04:39:38;;;;;;;0.00;0.00;;;16.80;85.50;;;;;;4231284;28;20101;-40
2020/12/22 04:42:00;;;;;;;0.00;0.00;;;16.90;85.30;;;;;;4230991;28;20060;-40
2020/12/22 04:44:21;;;;;;;0.00;0.00;;;16.90;85.30;;;;;;4231418;28;20052;-40
2020/12/22 04:46:49;;;;;;;0.28;0.28;;;16.80;85.30;;;;;;4231132;28;20069;-40
2020/12/22 04:49:13;;;;;;;0.00;0.00;;;16.80;85.60;;;;;;4230530;28;20051;-43
2020/12/22 04:51:37;;;;;;;0.00;0.00;;;16.70;85.80;;;;;;4231345;28;20138;-41
2020/12/22 04:53:59;;;;;;;0.00;0.00;;;16.80;85.90;;;;;;4214707;28;20054;-41
2020/12/22 04:56:22;;;;;;;0.00;0.00;;;16.70;85.90;;;;;;4214713;28;20602;-41
2020/12/22 04:58:43;;;;;;;0.20;0.20;;;16.80;85.90;;;;;;4216288;28;20572;-43
2020/12/22 05:01:07;;;;;;;0.03;0.03;;;16.90;86.30;;;;;;4231276;28;20105;-41
2020/12/22 05:03:27;;;;;;;0.00;0.00;;;16.90;85.10;;;;;;4231328;28;20130;-40
2020/12/22 05:05:48;;;;;;;0.00;0.00;;;17.00;84.90;;;;;;4231153;28;20059;-40
2020/12/22 05:08:10;;;;;;;0.00;0.00;;;17.00;85.00;;;;;;4230743;28;20055;-41
2020/12/22 05:10:32;;;;;;;0.10;0.10;;;16.90;85.10;;;;;;4230773;28;20109;-43
2020/12/22 05:12:53;;;;;;;0.25;0.20;;;16.90;85.20;;;;;;4231015;28;20050;-41
2020/12/22 05:15:13;;;;;;;0.00;0.00;;;16.90;85.30;;;;;;4231236;27;20108;-40
2020/12/22 05:17:40;;;;;;;0.00;0.00;;;16.90;85.90;;;;;;4230322;27;20121;-40
2020/12/22 05:20:01;;;;;;;0.00;0.00;;;16.80;86.10;;;;;;4230338;28;20524;-41
2020/12/22 05:22:26;;;;;;;0.00;0.00;;;16.80;86.00;;;;;;4230399;28;20058;-40
2020/12/22 05:24:49;;;;;;;0.00;0.00;;;16.90;85.60;;;;;;4230257;28;20055;-40
2020/12/22 05:27:11;;;;;;;0.00;0.00;;;17.00;85.30;;;;;;4230502;28;20394;-40
2020/12/22 05:29:33;;;;;;;0.00;0.00;;;17.00;85.30;;;;;;4230272;28;20055;-40
2020/12/22 05:31:53;;;;;;;0.00;0.00;;;17.00;85.40;;;;;;4230290;28;20146;-40
2020/12/22 05:34:15;;;;;;;0.00;0.00;;;17.10;85.20;;;;;;4230410;28;20507;-40
2020/12/22 05:36:37;;;;;;;;;;;17.10;84.90;;;;;;4230776;28;20493;-39
2020/12/22 05:38:58;;;;;;;0.00;0.00;;;17.10;84.80;;;;;;4230982;28;19927;-41
2020/12/22 05:41:19;;;;;;;0.00;0.00;;;17.10;84.90;;;;;;4230332;28;20048;-40
2020/12/22 05:43:42;;;;;;;0.00;0.00;;;17.00;85.00;;;;;;4230169;28;20516;-40
2020/12/22 05:46:03;;;;;;;0.00;0.00;;;17.00;85.30;;;;;;4230317;28;20048;-40
2020/12/22 05:48:26;;;;;;;0.00;0.00;;;16.90;85.60;;;;;;4230509;28;20079;-39
2020/12/22 05:50:51;;;;;;;0.00;0.00;;;16.90;85.70;;;;;;4213576;28;20131;-40
2020/12/22 05:53:14;;;;;;;0.15;0.15;;;17.10;85.00;;;;;;4212913;28;20410;-40
2020/12/22 05:55:35;;;;;;;0.00;0.00;;;17.40;83.90;;;;;;4213460;28;20097;-40
2020/12/22 05:58:10;;;;;;;0.00;0.00;;;17.50;83.20;;;;;;4213316;28;20052;-40
2020/12/22 06:00:31;;;;;;;0.00;0.00;;;17.50;82.90;;;;;;4213454;28;20052;-40
2020/12/22 06:02:59;;;;;;;0.00;0.00;;;17.50;83.00;;;;;;4213335;28;20055;-40
2020/12/22 06:05:20;;;;;;;0.00;0.00;;;17.50;83.10;;;;;;4213481;28;20056;-40
2020/12/22 06:07:46;;;;;;;0.00;0.00;;;17.40;83.50;;;;;;4213416;28;20059;-40
2020/12/22 06:10:07;;;;;;;0.00;0.00;;;17.30;83.90;;;;;;4228328;28;20111;-39
2020/12/22 06:12:37;;;;;;;0.00;0.00;;;17.20;84.20;;;;;;4230145;28;20085;-41
2020/12/22 06:14:59;;;;;;;0.10;0.10;;;17.10;84.70;;;;;;4229844;28;20047;-45
2020/12/22 06:17:20;;;;;;;0.00;0.00;;;17.10;85.20;;;;;;4229665;28;20055;-41
2020/12/22 06:19:43;;;;;;;0.00;0.00;;;17.00;85.60;;;;;;4229655;28;20062;-40
2020/12/22 06:22:04;;;;;;;0.00;0.00;;;16.90;86.00;;;;;;4228883;28;20052;-39
2020/12/22 06:24:25;;;;;;;;;;;16.90;86.50;;;;;;4230005;28;20132;-41
2020/12/22 06:26:52;;;;;;;0.00;0.00;;;16.80;86.80;;;;;;4229411;28;19923;-40
2020/12/22 06:29:25;;;;;;;0.00;0.00;;;16.70;87.20;;;;;;4229243;28;20047;-40
2020/12/22 06:31:48;;;;;;;0.20;0.20;;;16.60;87.60;;;;;;4228867;28;20422;-39
2020/12/22 06:34:24;;;;;;;0.20;0.17;;;16.60;87.90;;;;;;4229367;28;20051;-39
2020/12/22 06:36:56;;;;;;;0.00;0.00;;;16.60;87.90;;;;;;4229329;28;20051;-42
2020/12/22 06:39:39;;;;;;;0.50;0.50;;;16.70;87.40;;;;;;4229165;28;20054;-40
2020/12/22 06:42:00;;;;;;;0.00;0.00;;;16.80;86.90;;;;;;4229195;28;20058;-40
2020/12/22 06:44:28;;;;;;;0.00;0.00;;;17.00;87.90;;;;;;4229146;28;20130;-40
2020/12/22 06:46:52;;;;;;;0.00;0.00;;;17.20;87.30;;;;;;4229606;28;20052;-39
2020/12/22 06:49:13;;;;;;;0.45;0.45;;;17.50;85.60;;;;;;4229200;28;20479;-40
2020/12/22 06:51:36;;;;;;;0.00;0.00;;;17.70;84.60;;;;;;4228666;28;20056;-39
2020/12/22 06:54:02;;;;;;;0.00;0.00;;;17.70;84.10;;;;;;4228852;28;20490;-40
2020/12/22 06:56:44;;;;;;;2.83;1.10;;;17.70;84.00;;;;;;4228983;28;20520;-40
2020/12/22 06:59:05;;;;;;;2.05;1.10;;;17.70;84.30;;;;;;4228702;28;20406;-39
2020/12/22 07:01:30;;;;;;;0.75;0.47;;;17.60;84.60;;;;;;4229279;28;20567;-39
2020/12/22 07:03:53;;;;;;;0.68;0.68;;;17.50;85.00;;;;;;4228877;28;20057;-40
2020/12/22 07:06:13;;;;;;;0.00;0.00;;;17.40;85.40;;;;;;4229073;28;20054;-42
2020/12/22 07:08:35;;;;;;;0.25;0.25;;;17.30;85.80;;;;;;4229213;28;20058;-40
2020/12/22 07:10:57;;;;;;;0.00;0.00;;;17.20;86.20;;;;;;4228742;28;20054;-41
2020/12/22 07:13:19;;;;;;;0.35;0.35;;;17.10;86.60;;;;;;4211986;28;20067;-40
2020/12/22 07:15:44;;;;;;;0.00;0.00;;;17.00;86.90;;;;;;4221211;28;20450;-40
2020/12/22 07:18:06;;;;;;;0.10;0.10;;;17.00;87.40;;;;;;4229212;28;20494;-40
2020/12/22 07:20:28;;;;;;;0.30;0.30;;;16.90;87.70;;;;;;4228966;28;20494;-40
2020/12/22 07:22:50;;;;;;;0.38;0.38;;;16.80;88.10;;;;;;4229012;28;20047;-40
2020/12/22 07:25:27;;;;;;;0.35;0.35;;;16.80;88.50;;;;;;4229097;28;20052;-40
2020/12/22 07:27:49;;;;;;;0.20;0.20;;;16.80;88.40;;;;;;4228568;28;20059;-39
2020/12/22 07:30:10;;;;;;;1.45;1.30;;;16.90;88.10;;;;;;4228844;28;20438;-39
2020/12/22 07:32:31;;;;;;;0.90;0.85;;;16.90;87.80;;;;;;4229185;28;20048;-39
2020/12/22 07:34:53;;;;;;;0.88;0.88;;;16.90;87.70;;;;;;4228970;28;20134;-39
2020/12/22 07:37:16;;;;;;;0.00;0.00;;;17.10;87.10;;;;;;4228804;28;20047;-40
2020/12/22 07:39:37;;;;;;;0.08;0.08;;;17.30;86.20;;;;;;4228983;28;20084;-40
2020/12/22 07:42:07;;;;;;;1.10;1.10;;;17.40;85.50;;;;;;4228841;28;20534;-40
2020/12/22 07:44:29;;;;;;;0.00;0.00;;;17.50;85.10;;;;;;4229987;28;20519;-40
2020/12/22 07:46:54;;;;;;;0.00;0.00;;;17.50;85.00;;;;;;4232337;28;20051;-40
2020/12/22 07:49:16;;;;;;;0.32;0.32;;;17.40;85.20;;;;;;4232353;28;20049;-40
2020/12/22 07:51:40;;;;;;;0.00;0.00;;;17.30;85.50;;;;;;4232178;28;20052;-40
2020/12/22 07:54:03;;;;;;;0.20;0.20;;;17.30;85.80;;;;;;4231841;28;20051;-40
2020/12/22 07:56:25;;;;;;;0.68;0.68;;;17.20;86.10;;;;;;4231999;28;20472;-39
2020/12/22 07:58:52;;;;;;;0.10;0.10;;;17.10;86.40;;;;;;4232194;28;20096;-40
2020/12/22 08:01:13;;;;;;;0.00;0.00;;;17.00;86.80;;;;;;4231910;28;20063;-39
2020/12/22 08:03:34;;;;;;;8.52;1.85;;;17.00;87.20;;;;;;4231576;28;20075;-40
2020/12/22 08:06:03;;;;;;;11.45;2.63;;;16.90;87.60;;;;;;4231786;28;20096;-40
2020/12/22 08:08:23;;;;;;;0.13;0.13;;;16.80;87.90;;;;;;4232034;28;20110;-39
2020/12/22 08:10:45;;;;;;;0.00;0.00;;;16.80;88.20;;;;;;4231784;27;20047;-40
2020/12/22 08:13:07;;;;;;;0.00;0.00;;;16.70;88.60;;;;;;4231003;28;20059;-39
2020/12/22 08:15:28;;;;;;;0.17;0.17;;;16.60;88.90;;;;;;4214994;28;20055;-39
2020/12/22 08:17:56;;;;;;;0.10;0.10;;;16.60;89.20;;;;;;4219803;28;20104;-39
2020/12/22 08:20:17;;;;;;;0.00;0.00;;;16.50;89.50;;;;;;4231596;28;20164;-40
2020/12/22 08:22:41;;;;;;;1.55;0.95;;;16.50;89.80;;;;;;4231453;27;20054;-40
2020/12/22 08:25:02;;;;;;;0.00;0.00;;;16.40;89.90;;;;;;4231688;28;20039;-39
2020/12/22 08:27:24;;;;;;;0.10;0.10;;;16.40;90.10;;;;;;4231256;27;20054;-40
2020/12/22 08:29:46;;;;;;;0.10;0.10;;;16.30;90.20;;;;;;4230479;28;20531;-40
2020/12/22 08:32:08;;;;;;;0.00;0.00;;;16.30;90.30;;;;;;4231523;28;20048;-40
2020/12/22 08:34:30;;;;;;;0.95;0.95;;;16.20;90.40;;;;;;4231525;28;20047;-40
2020/12/22 08:36:53;;;;;;;0.00;0.00;;;16.20;90.90;;;;;;4231456;28;20047;-40
2020/12/22 08:39:20;;;;;;;0.00;0.00;;;16.20;90.50;;;;;;4229984;28;20071;-39
2020/12/22 08:41:41;;;;;;;0.55;0.55;;;16.10;90.60;;;;;;4214531;28;20079;-42
2020/12/22 08:44:05;;;;;;;0.20;0.20;;;16.10;90.70;;;;;;4222430;28;20051;-40
2020/12/22 08:46:26;;;;;;;0.40;0.40;;;16.10;90.90;;;;;;4231244;28;20055;-39
2020/12/22 08:48:47;;;;;;;0.00;0.00;;;16.00;90.80;;;;;;4231354;28;20063;-40
2020/12/22 08:51:09;;;;;;;0.00;0.00;;;16.00;90.80;;;;;;4214399;28;20124;-39
2020/12/22 08:53:30;;;;;;;0.00;0.00;;;16.00;90.90;;;;;;4214271;28;20561;-40
2020/12/22 08:56:05;;;;;;;0.00;0.00;;;15.90;90.90;;;;;;4213767;28;20059;-40
2020/12/22 08:58:26;;;;;;;0.00;0.00;;;15.90;91.00;;;;;;4221686;28;20083;-40
2020/12/22 09:00:48;;;;;;;0.00;0.00;;;15.90;91.00;;;;;;4230600;28;20425;-41
2020/12/22 09:03:10;;;;;;;0.00;0.00;;;15.80;91.00;;;;;;4220369;28;20089;-39
2020/12/22 09:05:31;;;;;;;0.00;0.00;;;15.80;91.10;;;;;;4231048;28;20134;-39
2020/12/22 09:07:57;;;;;;;;;;;15.80;91.50;;;;;;4230758;28;20486;-40
2020/12/22 09:10:18;;;;;;;0.00;0.00;;;15.80;91.20;;;;;;4230940;28;19930;-39
2020/12/22 09:12:39;;;;;;;0.00;0.00;;;15.80;91.20;;;;;;4230726;28;20082;-40
2020/12/22 09:15:00;;;;;;;0.98;0.80;;;15.80;91.20;;;;;;4229774;28;20055;-40
2020/12/22 09:17:28;;;;;;;0.28;0.28;;;15.70;91.20;;;;;;4230851;28;20159;-39
2020/12/22 09:19:51;;;;;;;0.45;0.45;;;15.70;91.70;;;;;;4230782;28;20052;-40
2020/12/22 09:22:13;;;;;;;0.00;0.00;;;15.90;91.20;;;;;;4230631;28;20479;-40
2020/12/22 09:24:34;;;;;;;0.00;0.00;;;16.10;90.80;;;;;;4230673;28;20062;-40
2020/12/22 09:27:03;;;;;;;;;;;16.20;90.40;;;;;;4231185;27;20052;-40
2020/12/22 09:29:26;;;;;;;0.00;0.00;;;16.30;90.20;;;;;;4230622;28;19924;-40
2020/12/22 09:31:47;;;;;;;0.00;0.00;;;16.40;90.00;;;;;;4230517;28;20047;-40
2020/12/22 09:34:09;;;;;;;0.00;0.00;;;16.40;90.00;;;;;;4230549;28;20555;-40
2020/12/22 09:36:30;;;;;;;0.00;0.00;;;16.40;90.00;;;;;;4230131;28;20083;-40
2020/12/22 09:38:51;;;;;;;0.00;0.00;;;16.40;90.00;;;;;;4230407;28;20498;-39
2020/12/22 09:41:12;;;;;;;;;;;16.30;90.00;;;;;;4230857;28;20547;-39
2020/12/22 09:43:33;;;;;;;0.00;0.00;;;16.40;90.00;;;;;;4230423;28;19924;-40
2020/12/22 09:46:12;;;;;;;2.28;1.27;;;16.50;89.20;;;;;;4229802;28;20109;-40
2020/12/22 09:48:33;;;;;;;;;;;16.70;88.60;;;;;;4230641;28;20044;-40
2020/12/22 09:50:54;;;;;;;0.00;0.00;;;16.70;88.30;;;;;;4230247;28;19928;-42
2020/12/22 09:53:16;;;;;;;0.00;0.00;;;16.70;88.30;;;;;;4214870;28;20823;-40
2020/12/22 09:55:37;;;;;;;13.45;2.03;;;16.70;88.40;;;;;;4230170;28;20047;-41
2020/12/22 09:58:13;;;;;;;0.00;0.00;;;16.60;88.40;;;;;;4229904;28;20047;-39
2020/12/22 10:00:34;;;;;;;0.03;0.03;;;16.60;88.70;;;;;;4213326;28;20081;-40
2020/12/22 10:02:55;;;;;;;0.00;0.00;;;16.50;88.90;;;;;;4213184;28;20477;-42
2020/12/22 10:05:16;;;;;;;0.00;0.00;;;16.40;89.20;;;;;;4213247;28;20494;-42
2020/12/22 10:07:38;;;;;;;0.20;0.20;;;16.40;89.50;;;;;;4212376;28;20154;-41
2020/12/22 10:09:59;;;;;;;0.00;0.00;;;16.40;89.70;;;;;;4213188;28;20067;-41
2020/12/22 10:12:21;;;;;;;0.10;0.10;;;16.30;89.90;;;;;;4213089;28;20063;-41
2020/12/22 10:14:42;;;;;;;0.40;0.40;;;16.20;90.00;;;;;;4212802;28;20056;-42
2020/12/22 10:17:03;;;;;;;3.10;0.75;;;16.20;90.10;;;;;;4212957;28;20059;-44
2020/12/22 10:19:24;;;;;;;;;;;16.10;90.20;;;;;;4213453;28;20052;-40
2020/12/22 10:21:45;;;;;;;0.00;0.00;;;16.10;90.30;;;;;;4213029;28;19923;-42
2020/12/22 10:24:07;;;;;;;0.00;0.00;;;16.10;90.40;;;;;;4212961;28;20056;-40
2020/12/22 10:26:28;;;;;;;0.80;0.80;;;16.00;90.50;;;;;;4212896;28;20044;-42
2020/12/22 10:28:49;;;;;;;0.00;0.00;;;16.00;90.50;;;;;;4223642;28;20043;-41
2020/12/22 10:31:14;;;;;;;0.00;0.00;;;15.90;90.60;;;;;;4229373;28;20104;-40
2020/12/22 10:33:35;;;;;;;0.00;0.00;;;15.90;90.60;;;;;;4229637;28;20063;-43
2020/12/22 10:35:57;;;;;;;0.05;0.05;;;15.90;90.70;;;;;;4229613;28;20051;-41
2020/12/22 10:38:18;;;;;;;0.00;0.00;;;15.80;90.80;;;;;;4229619;28;20051;-40
2020/12/22 10:40:40;;;;;;;0.20;0.20;;;15.80;90.80;;;;;;4228560;28;20054;-39
2020/12/22 10:43:03;;;;;;;1.13;1.02;;;15.80;90.90;;;;;;4229396;28;20067;-39
2020/12/22 10:45:24;;;;;;;0.00;0.00;;;15.80;91.00;;;;;;4229472;28;20047;-42
2020/12/22 10:47:48;;;;;;;0.05;0.05;;;15.80;90.90;;;;;;4229048;28;20100;-41
2020/12/22 10:50:08;;;;;;;0.10;0.10;;;15.80;90.80;;;;;;4229476;28;20079;-39
2020/12/22 10:52:29;;;;;;;0.00;0.00;;;15.90;90.70;;;;;;4228982;28;20044;-39
2020/12/22 10:54:50;;;;;;;2.15;1.67;;;16.00;90.40;;;;;;4229292;28;20047;-42
2020/12/22 10:57:13;;;;;;;0.30;0.30;;;16.10;90.10;;;;;;4229378;28;20051;-41
2020/12/22 10:59:34;;;;;;;0.00;0.00;;;16.30;89.80;;;;;;4229376;28;20130;-41
2020/12/22 11:01:56;;;;;;;0.00;0.00;;;16.40;89.00;;;;;;4228991;28;20731;-39
2020/12/22 11:04:17;;;;;;;0.00;0.00;;;16.60;88.00;;;;;;4229328;28;20512;-40
2020/12/22 11:06:47;;;;;;;5.88;1.13;;;16.60;87.50;;;;;;4229142;28;20055;-40
2020/12/22 11:09:08;;;;;;;24.65;3.30;;;16.70;87.20;;;;;;4223549;28;20043;-41
2020/12/22 11:11:33;;;;;;;0.55;0.55;;;16.70;87.00;;;;;;4229150;28;20592;-40
2020/12/22 11:13:55;;;;;;;;;;;16.80;86.60;;;;;;4228893;28;20056;-39
2020/12/22 11:16:16;;;;;;;;;;;16.80;86.20;;;;;;4212932;28;20411;-41
2020/12/22 11:18:37;;;;;;;0.00;0.00;;;16.80;86.20;;;;;;4213823;28;19920;-42
2020/12/22 11:20:58;;;;;;;0.93;0.60;;;16.80;86.10;;;;;;4215943;28;20532;-42
2020/12/22 11:23:35;;;;;;;0.13;0.13;;;16.90;86.30;;;;;;4215840;28;20144;-41
2020/12/22 11:25:58;;;;;;;0.75;0.73;;;16.90;85.90;;;;;;4215634;28;20048;-42
2020/12/22 11:28:19;;;;;;;0.95;0.95;;;17.00;85.70;;;;;;4215759;28;20052;-41
2020/12/22 11:30:40;;;;;;;1.65;1.55;;;17.00;85.60;;;;;;4215761;28;20048;-41
2020/12/22 11:33:02;;;;;;;2.45;1.55;;;16.90;85.80;;;;;;4215463;28;20056;-41
2020/12/22 11:35:24;;;;;;;2.22;2.03;;;16.90;86.00;;;;;;4215429;28;20062;-41
2020/12/22 11:37:45;;;;;;;0.13;0.13;;;16.80;86.20;;;;;;4215624;28;20149;-41
2020/12/22 11:40:06;;;;;;;0.00;0.00;;;16.80;86.60;;;;;;4215731;28;20052;-41
2020/12/22 11:42:27;;;;;;;0.00;0.00;;;16.80;86.60;;;;;;4215501;28;20755;-42
2020/12/22 11:44:48;;;;;;;0.00;0.00;;;17.00;85.70;;;;;;4215495;28;20526;-41
2020/12/22 11:47:09;;;;;;;0.00;0.00;;;17.20;85.00;;;;;;4215375;28;20064;-41
2020/12/22 11:49:31;;;;;;;0.10;0.10;;;17.20;84.60;;;;;;4215446;28;20052;-42
2020/12/22 11:51:56;;;;;;;0.00;0.00;;;17.20;84.60;;;;;;4215564;28;20051;-42
2020/12/22 11:54:16;;;;;;;0.75;0.75;;;17.20;84.70;;;;;;4215236;28;20063;-42
2020/12/22 11:56:38;;;;;;;0.00;0.00;;;17.10;84.80;;;;;;4215166;28;20063;-41
2020/12/22 11:58:59;;;;;;;0.00;0.00;;;17.10;85.00;;;;;;4215301;28;20493;-42
2020/12/22 12:01:26;;;;;;;0.45;0.45;;;17.00;85.40;;;;;;4214915;28;20067;-42
2020/12/22 12:03:48;;;;;;;0.90;0.90;;;16.90;85.70;;;;;;4225381;28;20097;-42
2020/12/22 12:06:10;;;;;;;0.00;0.00;;;16.80;86.10;;;;;;4231823;28;20426;-39
2020/12/22 12:08:31;;;;;;;0.00;0.00;;;16.80;86.50;;;;;;4231910;28;20126;-41
2020/12/22 12:10:52;;;;;;;0.00;0.00;;;16.70;86.90;;;;;;4232126;28;20138;-41
2020/12/22 12:13:12;;;;;;;0.00;0.00;;;16.60;87.20;;;;;;4231941;28;20055;-42
2020/12/22 12:15:33;;;;;;;0.00;0.00;;;16.60;87.60;;;;;;4231857;27;20055;-41
2020/12/22 12:17:54;;;;;;;0.00;0.00;;;16.50;88.10;;;;;;4231921;27;20421;-41
2020/12/22 12:20:18;;;;;;;0.63;0.63;;;16.40;88.40;;;;;;4231750;28;20051;-41
2020/12/22 12:22:39;;;;;;;1.30;1.20;;;16.40;88.80;;;;;;4230983;28;20050;-41
2020/12/22 12:25:02;;;;;;;0.00;0.00;;;16.30;89.10;;;;;;4231158;27;20180;-41